sensor_id;sensor_type;location;lat;lon;timestamp;temperature;humidity
43089;DHT22;28709;52.030;5.652;2022-08-03T00:01:49;21.60;97.80
43089;DHT22;28709;52.030;5.652;2022-08-03T00:04:15;21.60;97.90
43089;DHT22;28709;52.030;5.652;2022-08-03T00:06:41;21.60;98.00
43089;DHT22;28709;52.030;5.652;2022-08-03T00:09:07;21.50;98.00
43089;DHT22;28709;52.030;5.652;2022-08-03T00:11:33;21.50;98.10
43089;DHT22;28709;52.030;5.652;2022-08-03T00:13:59;21.40;98.20
43089;DHT22;28709;52.030;5.652;2022-08-03T00:16:25;21.40;98.20
43089;DHT22;28709;52.030;5.652;2022-08-03T00:18:51;21.40;98.30
43089;DHT22;28709;52.030;5.652;2022-08-03T00:21:16;21.30;98.40
43089;DHT22;28709;52.030;5.652;2022-08-03T00:23:42;21.30;98.50
43089;DHT22;28709;52.030;5.652;2022-08-03T00:26:08;21.30;98.60
43089;DHT22;28709;52.030;5.652;2022-08-03T00:28:33;21.30;98.60
43089;DHT22;28709;52.030;5.652;2022-08-03T00:30:59;21.20;98.70
43089;DHT22;28709;52.030;5.652;2022-08-03T00:33:25;21.20;98.70
43089;DHT22;28709;52.030;5.652;2022-08-03T00:35:51;21.20;98.80
43089;DHT22;28709;52.030;5.652;2022-08-03T00:38:18;21.20;98.80
43089;DHT22;28709;52.030;5.652;2022-08-03T00:40:43;21.20;98.90
43089;DHT22;28709;52.030;5.652;2022-08-03T00:43:09;21.10;99.00
43089;DHT22;28709;52.030;5.652;2022-08-03T00:45:37;21.10;99.00
43089;DHT22;28709;52.030;5.652;2022-08-03T00:48:05;21.10;99.10
43089;DHT22;28709;52.030;5.652;2022-08-03T00:50:34;21.10;99.10
43089;DHT22;28709;52.030;5.652;2022-08-03T00:53:02;21.10;99.20
43089;DHT22;28709;52.030;5.652;2022-08-03T00:55:29;21.10;99.20
43089;DHT22;28709;52.030;5.652;2022-08-03T00:57:55;21.10;99.30
43089;DHT22;28709;52.030;5.652;2022-08-03T01:00:23;21.10;99.40
43089;DHT22;28709;52.030;5.652;2022-08-03T01:02:49;21.00;99.80
43089;DHT22;28709;52.030;5.652;2022-08-03T01:05:15;20.90;99.60
43089;DHT22;28709;52.030;5.652;2022-08-03T01:08:18;20.90;99.70
43089;DHT22;28709;52.030;5.652;2022-08-03T01:10:53;20.90;99.80
43089;DHT22;28709;52.030;5.652;2022-08-03T01:16:14;20.80;99.90
43089;DHT22;28709;52.030;5.652;2022-08-03T01:18:59;20.70;99.90
43089;DHT22;28709;52.030;5.652;2022-08-03T01:21:44;20.70;99.90
43089;DHT22;28709;52.030;5.652;2022-08-03T01:24:44;20.70;99.90
43089;DHT22;28709;52.030;5.652;2022-08-03T01:27:17;20.70;99.90
43089;DHT22;28709;52.030;5.652;2022-08-03T01:30:07;20.70;99.90
43089;DHT22;28709;52.030;5.652;2022-08-03T01:35:05;20.70;99.90
43089;DHT22;28709;52.030;5.652;2022-08-03T01:38:01;20.60;99.90
43089;DHT22;28709;52.030;5.652;2022-08-03T01:40:26;20.60;99.90
43089;DHT22;28709;52.030;5.652;2022-08-03T01:42:54;20.60;99.90
43089;DHT22;28709;52.030;5.652;2022-08-03T01:45:21;20.60;99.90
43089;DHT22;28709;52.030;5.652;2022-08-03T01:47:49;20.50;99.90
43089;DHT22;28709;52.030;5.652;2022-08-03T01:50:20;20.50;99.90
43089;DHT22;28709;52.030;5.652;2022-08-03T01:52:47;20.50;99.90
43089;DHT22;28709;52.030;5.652;2022-08-03T01:55:16;20.50;99.90
43089;DHT22;28709;52.030;5.652;2022-08-03T01:57:43;20.50;99.90
43089;DHT22;28709;52.030;5.652;2022-08-03T02:00:10;20.50;99.90
43089;DHT22;28709;52.030;5.652;2022-08-03T02:02:38;20.50;99.90
43089;DHT22;28709;52.030;5.652;2022-08-03T02:05:06;20.50;99.90
43089;DHT22;28709;52.030;5.652;2022-08-03T02:07:33;20.40;99.90
43089;DHT22;28709;52.030;5.652;2022-08-03T02:10:02;20.40;99.90
43089;DHT22;28709;52.030;5.652;2022-08-03T02:12:30;20.40;99.90
43089;DHT22;28709;52.030;5.652;2022-08-03T02:14:57;20.40;99.90
43089;DHT22;28709;52.030;5.652;2022-08-03T02:17:25;20.30;99.90
43089;DHT22;28709;52.030;5.652;2022-08-03T02:19:52;20.30;99.90
43089;DHT22;28709;52.030;5.652;2022-08-03T02:22:19;20.30;99.90
43089;DHT22;28709;52.030;5.652;2022-08-03T02:24:46;20.30;99.90
43089;DHT22;28709;52.030;5.652;2022-08-03T02:27:22;20.30;99.90
43089;DHT22;28709;52.030;5.652;2022-08-03T02:29:52;20.20;99.90
43089;DHT22;28709;52.030;5.652;2022-08-03T02:32:23;20.20;99.90
43089;DHT22;28709;52.030;5.652;2022-08-03T02:34:51;20.20;99.90
43089;DHT22;28709;52.030;5.652;2022-08-03T02:37:18;20.20;99.90
43089;DHT22;28709;52.030;5.652;2022-08-03T02:39:45;20.30;99.90
43089;DHT22;28709;52.030;5.652;2022-08-03T02:42:13;20.30;99.90
43089;DHT22;28709;52.030;5.652;2022-08-03T02:44:40;20.30;99.90
43089;DHT22;28709;52.030;5.652;2022-08-03T02:47:12;20.30;99.90
43089;DHT22;28709;52.030;5.652;2022-08-03T02:49:40;20.30;99.90
43089;DHT22;28709;52.030;5.652;2022-08-03T02:52:08;20.30;99.90
43089;DHT22;28709;52.030;5.652;2022-08-03T02:54:37;20.30;99.90
43089;DHT22;28709;52.030;5.652;2022-08-03T02:57:06;20.20;99.90
43089;DHT22;28709;52.030;5.652;2022-08-03T02:59:33;20.20;99.90
43089;DHT22;28709;52.030;5.652;2022-08-03T03:02:00;20.20;99.90
43089;DHT22;28709;52.030;5.652;2022-08-03T03:04:27;20.10;99.90
43089;DHT22;28709;52.030;5.652;2022-08-03T03:06:54;20.10;99.90
43089;DHT22;28709;52.030;5.652;2022-08-03T03:09:21;20.00;99.90
43089;DHT22;28709;52.030;5.652;2022-08-03T03:11:48;20.00;99.90
43089;DHT22;28709;52.030;5.652;2022-08-03T03:14:14;19.90;99.90
43089;DHT22;28709;52.030;5.652;2022-08-03T03:16:41;19.90;99.90
43089;DHT22;28709;52.030;5.652;2022-08-03T03:19:07;19.90;99.90
43089;DHT22;28709;52.030;5.652;2022-08-03T03:21:36;19.90;99.90
43089;DHT22;28709;52.030;5.652;2022-08-03T03:24:03;19.90;99.90
43089;DHT22;28709;52.030;5.652;2022-08-03T03:26:29;19.90;99.90
43089;DHT22;28709;52.030;5.652;2022-08-03T03:28:55;19.90;99.90
43089;DHT22;28709;52.030;5.652;2022-08-03T03:31:21;19.90;99.90
43089;DHT22;28709;52.030;5.652;2022-08-03T03:33:47;19.90;99.90
43089;DHT22;28709;52.030;5.652;2022-08-03T03:36:12;19.90;99.90
43089;DHT22;28709;52.030;5.652;2022-08-03T03:38:38;19.90;99.90
43089;DHT22;28709;52.030;5.652;2022-08-03T03:41:04;20.00;99.90
43089;DHT22;28709;52.030;5.652;2022-08-03T03:43:30;19.90;99.90
43089;DHT22;28709;52.030;5.652;2022-08-03T03:45:57;19.90;99.90
43089;DHT22;28709;52.030;5.652;2022-08-03T03:48:23;19.90;99.90
43089;DHT22;28709;52.030;5.652;2022-08-03T03:50:49;19.90;99.90
43089;DHT22;28709;52.030;5.652;2022-08-03T03:53:15;19.90;99.90
43089;DHT22;28709;52.030;5.652;2022-08-03T03:55:41;19.90;99.90
43089;DHT22;28709;52.030;5.652;2022-08-03T03:58:07;19.90;99.90
43089;DHT22;28709;52.030;5.652;2022-08-03T04:00:33;19.90;99.90
43089;DHT22;28709;52.030;5.652;2022-08-03T04:02:59;19.90;99.90
43089;DHT22;28709;52.030;5.652;2022-08-03T04:05:25;19.90;99.90
43089;DHT22;28709;52.030;5.652;2022-08-03T04:08:13;19.90;99.90
43089;DHT22;28709;52.030;5.652;2022-08-03T04:13:50;19.90;99.90
43089;DHT22;28709;52.030;5.652;2022-08-03T04:16:19;19.80;99.90
43089;DHT22;28709;52.030;5.652;2022-08-03T04:18:48;19.80;99.90
43089;DHT22;28709;52.030;5.652;2022-08-03T04:21:16;19.80;99.90
43089;DHT22;28709;52.030;5.652;2022-08-03T04:23:46;19.80;99.90
43089;DHT22;28709;52.030;5.652;2022-08-03T04:26:15;19.80;99.90
43089;DHT22;28709;52.030;5.652;2022-08-03T04:28:44;19.80;99.90
43089;DHT22;28709;52.030;5.652;2022-08-03T04:31:12;19.80;99.90
43089;DHT22;28709;52.030;5.652;2022-08-03T04:33:38;19.80;99.90
43089;DHT22;28709;52.030;5.652;2022-08-03T04:36:07;19.80;99.90
43089;DHT22;28709;52.030;5.652;2022-08-03T04:38:38;19.80;99.90
43089;DHT22;28709;52.030;5.652;2022-08-03T04:41:05;19.80;99.90
43089;DHT22;28709;52.030;5.652;2022-08-03T04:43:32;19.80;99.90
43089;DHT22;28709;52.030;5.652;2022-08-03T04:45:59;19.80;99.90
43089;DHT22;28709;52.030;5.652;2022-08-03T04:48:25;19.90;99.90
43089;DHT22;28709;52.030;5.652;2022-08-03T04:50:52;19.90;99.90
43089;DHT22;28709;52.030;5.652;2022-08-03T04:53:18;19.90;99.90
43089;DHT22;28709;52.030;5.652;2022-08-03T04:55:43;19.90;99.90
43089;DHT22;28709;52.030;5.652;2022-08-03T04:58:09;20.00;99.90
43089;DHT22;28709;52.030;5.652;2022-08-03T05:00:35;20.00;99.90
43089;DHT22;28709;52.030;5.652;2022-08-03T05:03:00;20.00;99.90
43089;DHT22;28709;52.030;5.652;2022-08-03T05:05:26;20.00;99.90
43089;DHT22;28709;52.030;5.652;2022-08-03T05:07:52;20.00;99.90
43089;DHT22;28709;52.030;5.652;2022-08-03T05:10:18;20.00;99.90
43089;DHT22;28709;52.030;5.652;2022-08-03T05:12:47;20.00;99.90
43089;DHT22;28709;52.030;5.652;2022-08-03T05:15:15;20.00;99.90
43089;DHT22;28709;52.030;5.652;2022-08-03T05:17:41;20.00;99.90
43089;DHT22;28709;52.030;5.652;2022-08-03T05:20:07;20.00;99.90
43089;DHT22;28709;52.030;5.652;2022-08-03T05:22:33;20.00;99.90
43089;DHT22;28709;52.030;5.652;2022-08-03T05:25:00;20.10;99.90
43089;DHT22;28709;52.030;5.652;2022-08-03T05:27:26;20.10;99.90
43089;DHT22;28709;52.030;5.652;2022-08-03T05:29:52;20.20;99.90
43089;DHT22;28709;52.030;5.652;2022-08-03T05:32:17;20.20;99.90
43089;DHT22;28709;52.030;5.652;2022-08-03T05:34:44;20.20;99.90
43089;DHT22;28709;52.030;5.652;2022-08-03T05:37:10;20.20;99.90
43089;DHT22;28709;52.030;5.652;2022-08-03T05:39:37;20.30;99.90
43089;DHT22;28709;52.030;5.652;2022-08-03T05:42:02;20.30;99.90
43089;DHT22;28709;52.030;5.652;2022-08-03T05:44:28;20.30;99.90
43089;DHT22;28709;52.030;5.652;2022-08-03T05:46:54;20.40;99.90
43089;DHT22;28709;52.030;5.652;2022-08-03T05:49:19;20.50;99.90
43089;DHT22;28709;52.030;5.652;2022-08-03T05:51:45;20.50;99.90
43089;DHT22;28709;52.030;5.652;2022-08-03T05:54:11;20.60;99.90
43089;DHT22;28709;52.030;5.652;2022-08-03T05:56:36;20.70;99.90
43089;DHT22;28709;52.030;5.652;2022-08-03T05:59:03;20.70;99.90
43089;DHT22;28709;52.030;5.652;2022-08-03T06:01:28;20.80;99.90
43089;DHT22;28709;52.030;5.652;2022-08-03T06:03:56;20.90;99.90
43089;DHT22;28709;52.030;5.652;2022-08-03T06:06:22;21.00;99.90
43089;DHT22;28709;52.030;5.652;2022-08-03T06:08:48;21.10;99.90
43089;DHT22;28709;52.030;5.652;2022-08-03T06:11:13;21.10;99.90
43089;DHT22;28709;52.030;5.652;2022-08-03T06:13:39;21.20;99.90
43089;DHT22;28709;52.030;5.652;2022-08-03T06:16:05;21.20;99.90
43089;DHT22;28709;52.030;5.652;2022-08-03T06:18:31;21.30;99.90
43089;DHT22;28709;52.030;5.652;2022-08-03T06:20:56;21.40;99.90
43089;DHT22;28709;52.030;5.652;2022-08-03T06:23:22;21.50;99.90
43089;DHT22;28709;52.030;5.652;2022-08-03T06:25:48;21.50;99.90
43089;DHT22;28709;52.030;5.652;2022-08-03T06:28:13;21.60;99.90
43089;DHT22;28709;52.030;5.652;2022-08-03T06:30:40;21.70;99.90
43089;DHT22;28709;52.030;5.652;2022-08-03T06:33:06;21.70;99.90
43089;DHT22;28709;52.030;5.652;2022-08-03T06:35:32;21.80;99.90
43089;DHT22;28709;52.030;5.652;2022-08-03T06:37:57;21.90;99.90
43089;DHT22;28709;52.030;5.652;2022-08-03T06:40:23;21.90;99.90
43089;DHT22;28709;52.030;5.652;2022-08-03T06:42:55;21.90;99.90
43089;DHT22;28709;52.030;5.652;2022-08-03T06:45:20;22.00;99.90
43089;DHT22;28709;52.030;5.652;2022-08-03T06:47:46;22.10;99.90
43089;DHT22;28709;52.030;5.652;2022-08-03T06:50:12;22.10;99.90
43089;DHT22;28709;52.030;5.652;2022-08-03T06:52:37;22.20;99.90
43089;DHT22;28709;52.030;5.652;2022-08-03T06:55:04;22.40;99.90
43089;DHT22;28709;52.030;5.652;2022-08-03T06:57:30;22.50;99.90
43089;DHT22;28709;52.030;5.652;2022-08-03T06:59:55;22.60;99.90
43089;DHT22;28709;52.030;5.652;2022-08-03T07:02:27;22.70;99.90
43089;DHT22;28709;52.030;5.652;2022-08-03T07:04:52;22.70;99.90
43089;DHT22;28709;52.030;5.652;2022-08-03T07:07:18;22.80;99.90
43089;DHT22;28709;52.030;5.652;2022-08-03T07:09:45;22.90;99.90
43089;DHT22;28709;52.030;5.652;2022-08-03T07:12:10;23.00;99.90
43089;DHT22;28709;52.030;5.652;2022-08-03T07:14:36;23.10;99.90
43089;DHT22;28709;52.030;5.652;2022-08-03T07:17:02;23.30;99.90
43089;DHT22;28709;52.030;5.652;2022-08-03T07:19:27;23.40;99.90
43089;DHT22;28709;52.030;5.652;2022-08-03T07:21:53;23.40;99.90
43089;DHT22;28709;52.030;5.652;2022-08-03T07:24:19;23.60;99.90
43089;DHT22;28709;52.030;5.652;2022-08-03T07:26:44;23.70;99.90
43089;DHT22;28709;52.030;5.652;2022-08-03T07:29:10;23.80;99.90
43089;DHT22;28709;52.030;5.652;2022-08-03T07:31:35;23.90;99.90
43089;DHT22;28709;52.030;5.652;2022-08-03T07:34:01;24.00;99.90
43089;DHT22;28709;52.030;5.652;2022-08-03T07:36:27;24.00;99.90
43089;DHT22;28709;52.030;5.652;2022-08-03T07:38:52;24.10;99.90
43089;DHT22;28709;52.030;5.652;2022-08-03T07:41:18;24.20;99.90
43089;DHT22;28709;52.030;5.652;2022-08-03T07:43:44;24.30;99.90
43089;DHT22;28709;52.030;5.652;2022-08-03T07:46:09;24.40;99.90
43089;DHT22;28709;52.030;5.652;2022-08-03T07:48:35;24.40;99.90
43089;DHT22;28709;52.030;5.652;2022-08-03T07:51:00;24.50;99.90
43089;DHT22;28709;52.030;5.652;2022-08-03T07:53:27;24.60;99.90
43089;DHT22;28709;52.030;5.652;2022-08-03T07:55:53;24.70;99.90
43089;DHT22;28709;52.030;5.652;2022-08-03T07:58:19;24.80;99.90
43089;DHT22;28709;52.030;5.652;2022-08-03T08:00:45;25.00;99.90
43089;DHT22;28709;52.030;5.652;2022-08-03T08:03:11;25.20;99.90
43089;DHT22;28709;52.030;5.652;2022-08-03T08:05:37;25.40;99.90
43089;DHT22;28709;52.030;5.652;2022-08-03T08:08:03;25.40;99.90
43089;DHT22;28709;52.030;5.652;2022-08-03T08:10:29;25.50;99.90
43089;DHT22;28709;52.030;5.652;2022-08-03T08:12:57;25.50;99.90
43089;DHT22;28709;52.030;5.652;2022-08-03T08:15:22;25.60;99.90
43089;DHT22;28709;52.030;5.652;2022-08-03T08:17:53;25.80;99.90
43089;DHT22;28709;52.030;5.652;2022-08-03T08:20:24;25.90;99.90
43089;DHT22;28709;52.030;5.652;2022-08-03T08:22:50;26.00;99.90
43089;DHT22;28709;52.030;5.652;2022-08-03T08:25:16;26.10;99.90
43089;DHT22;28709;52.030;5.652;2022-08-03T08:27:43;26.10;99.90
43089;DHT22;28709;52.030;5.652;2022-08-03T08:30:09;26.00;99.90
43089;DHT22;28709;52.030;5.652;2022-08-03T08:32:35;26.00;99.90
43089;DHT22;28709;52.030;5.652;2022-08-03T08:35:02;26.00;99.90
43089;DHT22;28709;52.030;5.652;2022-08-03T08:37:28;26.00;99.90
43089;DHT22;28709;52.030;5.652;2022-08-03T08:39:55;26.10;99.90
43089;DHT22;28709;52.030;5.652;2022-08-03T08:42:21;26.20;99.90
43089;DHT22;28709;52.030;5.652;2022-08-03T08:44:47;26.30;99.90
43089;DHT22;28709;52.030;5.652;2022-08-03T08:47:13;26.50;99.90
43089;DHT22;28709;52.030;5.652;2022-08-03T08:49:40;26.60;99.90
43089;DHT22;28709;52.030;5.652;2022-08-03T08:52:07;26.80;99.90
43089;DHT22;28709;52.030;5.652;2022-08-03T08:54:35;27.00;99.90
43089;DHT22;28709;52.030;5.652;2022-08-03T08:57:03;27.10;99.60
43089;DHT22;28709;52.030;5.652;2022-08-03T08:59:32;27.20;99.50
43089;DHT22;28709;52.030;5.652;2022-08-03T09:01:59;27.40;99.40
43089;DHT22;28709;52.030;5.652;2022-08-03T09:04:27;27.50;99.20
43089;DHT22;28709;52.030;5.652;2022-08-03T09:06:53;27.60;99.10
43089;DHT22;28709;52.030;5.652;2022-08-03T09:09:18;27.70;99.00
43089;DHT22;28709;52.030;5.652;2022-08-03T09:11:48;27.80;98.70
43089;DHT22;28709;52.030;5.652;2022-08-03T09:14:14;27.80;98.50
43089;DHT22;28709;52.030;5.652;2022-08-03T09:16:59;27.80;98.10
43089;DHT22;28709;52.030;5.652;2022-08-03T09:19:27;27.90;97.90
43089;DHT22;28709;52.030;5.652;2022-08-03T09:22:11;28.00;97.60
43089;DHT22;28709;52.030;5.652;2022-08-03T09:24:52;28.20;97.50
43089;DHT22;28709;52.030;5.652;2022-08-03T09:27:19;28.30;97.30
43089;DHT22;28709;52.030;5.652;2022-08-03T09:29:52;28.30;97.00
43089;DHT22;28709;52.030;5.652;2022-08-03T09:32:23;28.30;97.10
43089;DHT22;28709;52.030;5.652;2022-08-03T09:34:50;28.50;96.90
43089;DHT22;28709;52.030;5.652;2022-08-03T09:37:18;28.70;96.80
43089;DHT22;28709;52.030;5.652;2022-08-03T09:39:45;28.80;96.60
43089;DHT22;28709;52.030;5.652;2022-08-03T09:42:17;28.80;95.80
43089;DHT22;28709;52.030;5.652;2022-08-03T09:44:45;28.80;95.70
43089;DHT22;28709;52.030;5.652;2022-08-03T09:47:13;28.90;95.90
43089;DHT22;28709;52.030;5.652;2022-08-03T09:49:41;29.10;95.70
43089;DHT22;28709;52.030;5.652;2022-08-03T09:52:20;29.20;95.60
43089;DHT22;28709;52.030;5.652;2022-08-03T09:54:51;29.40;95.40
43089;DHT22;28709;52.030;5.652;2022-08-03T09:57:22;29.50;95.40
43089;DHT22;28709;52.030;5.652;2022-08-03T09:59:48;29.70;94.90
43089;DHT22;28709;52.030;5.652;2022-08-03T10:02:24;29.70;95.00
43089;DHT22;28709;52.030;5.652;2022-08-03T10:04:51;29.80;94.80
43089;DHT22;28709;52.030;5.652;2022-08-03T10:07:19;29.90;94.20
43089;DHT22;28709;52.030;5.652;2022-08-03T10:10:00;30.00;94.20
43089;DHT22;28709;52.030;5.652;2022-08-03T10:12:27;30.20;93.90
43089;DHT22;28709;52.030;5.652;2022-08-03T10:14:53;30.30;93.80
43089;DHT22;28709;52.030;5.652;2022-08-03T10:17:20;30.50;93.40
43089;DHT22;28709;52.030;5.652;2022-08-03T10:19:47;30.50;93.40
43089;DHT22;28709;52.030;5.652;2022-08-03T10:22:15;30.60;93.10
43089;DHT22;28709;52.030;5.652;2022-08-03T10:24:55;30.50;92.90
43089;DHT22;28709;52.030;5.652;2022-08-03T10:27:24;30.60;92.60
43089;DHT22;28709;52.030;5.652;2022-08-03T10:29:55;30.70;92.30
43089;DHT22;28709;52.030;5.652;2022-08-03T10:35:09;30.90;91.80
43089;DHT22;28709;52.030;5.652;2022-08-03T10:37:43;30.90;91.60
43089;DHT22;28709;52.030;5.652;2022-08-03T10:40:12;31.00;91.30
43089;DHT22;28709;52.030;5.652;2022-08-03T10:42:41;30.90;91.30
43089;DHT22;28709;52.030;5.652;2022-08-03T10:45:28;31.00;91.30
43089;DHT22;28709;52.030;5.652;2022-08-03T10:47:56;31.10;90.90
43089;DHT22;28709;52.030;5.652;2022-08-03T10:50:24;31.10;90.90
43089;DHT22;28709;52.030;5.652;2022-08-03T10:55:38;31.20;90.40
43089;DHT22;28709;52.030;5.652;2022-08-03T11:01:10;31.10;90.00
43089;DHT22;28709;52.030;5.652;2022-08-03T11:06:23;31.10;90.00
43089;DHT22;28709;52.030;5.652;2022-08-03T11:11:40;31.30;89.40
43089;DHT22;28709;52.030;5.652;2022-08-03T11:14:18;31.50;88.90
43089;DHT22;28709;52.030;5.652;2022-08-03T11:16:47;31.70;88.60
43089;DHT22;28709;52.030;5.652;2022-08-03T11:19:16;31.80;88.50
43089;DHT22;28709;52.030;5.652;2022-08-03T11:27:22;32.30;86.50
43089;DHT22;28709;52.030;5.652;2022-08-03T11:40:49;32.40;85.00
43089;DHT22;28709;52.030;5.652;2022-08-03T11:48:39;32.50;81.80
43089;DHT22;28709;52.030;5.652;2022-08-03T11:51:06;32.50;81.60
43089;DHT22;28709;52.030;5.652;2022-08-03T11:53:33;32.70;80.50
43089;DHT22;28709;52.030;5.652;2022-08-03T11:56:00;32.70;79.60
43089;DHT22;28709;52.030;5.652;2022-08-03T11:58:26;32.70;79.30
43089;DHT22;28709;52.030;5.652;2022-08-03T12:00:52;32.60;79.40
43089;DHT22;28709;52.030;5.652;2022-08-03T12:03:19;32.70;79.20
43089;DHT22;28709;52.030;5.652;2022-08-03T12:08:14;32.80;79.40
43089;DHT22;28709;52.030;5.652;2022-08-03T12:10:48;33.00;79.20
43089;DHT22;28709;52.030;5.652;2022-08-03T12:13:15;32.90;78.30
43089;DHT22;28709;52.030;5.652;2022-08-03T12:15:41;32.90;77.90
43089;DHT22;28709;52.030;5.652;2022-08-03T12:18:15;33.00;77.90
43089;DHT22;28709;52.030;5.652;2022-08-03T12:20:42;33.00;77.70
43089;DHT22;28709;52.030;5.652;2022-08-03T12:23:08;33.20;77.50
43089;DHT22;28709;52.030;5.652;2022-08-03T12:25:35;33.30;77.10
43089;DHT22;28709;52.030;5.652;2022-08-03T12:28:16;33.30;77.50
43089;DHT22;28709;52.030;5.652;2022-08-03T12:30:50;33.40;74.90
43089;DHT22;28709;52.030;5.652;2022-08-03T12:33:26;33.30;74.70
43089;DHT22;28709;52.030;5.652;2022-08-03T12:36:04;33.30;74.30
43089;DHT22;28709;52.030;5.652;2022-08-03T12:38:31;33.30;72.70
43089;DHT22;28709;52.030;5.652;2022-08-03T12:41:00;33.20;70.50
43089;DHT22;28709;52.030;5.652;2022-08-03T12:43:26;32.90;70.70
43089;DHT22;28709;52.030;5.652;2022-08-03T12:46:07;32.80;71.50
43089;DHT22;28709;52.030;5.652;2022-08-03T12:48:33;32.90;72.00
43089;DHT22;28709;52.030;5.652;2022-08-03T12:51:09;33.00;71.60
43089;DHT22;28709;52.030;5.652;2022-08-03T12:53:35;33.00;71.60
43089;DHT22;28709;52.030;5.652;2022-08-03T12:56:02;33.00;71.50
43089;DHT22;28709;52.030;5.652;2022-08-03T12:58:34;32.90;71.60
43089;DHT22;28709;52.030;5.652;2022-08-03T13:01:01;32.90;71.60
43089;DHT22;28709;52.030;5.652;2022-08-03T13:03:27;33.00;71.70
43089;DHT22;28709;52.030;5.652;2022-08-03T13:05:53;33.00;71.80
43089;DHT22;28709;52.030;5.652;2022-08-03T13:08:20;33.10;71.50
43089;DHT22;28709;52.030;5.652;2022-08-03T13:10:46;33.20;71.20
43089;DHT22;28709;52.030;5.652;2022-08-03T13:13:12;33.10;71.40
43089;DHT22;28709;52.030;5.652;2022-08-03T13:15:38;33.10;71.70
43089;DHT22;28709;52.030;5.652;2022-08-03T13:18:04;33.10;71.60
43089;DHT22;28709;52.030;5.652;2022-08-03T13:20:29;33.00;71.80
43089;DHT22;28709;52.030;5.652;2022-08-03T13:22:55;33.10;71.60
43089;DHT22;28709;52.030;5.652;2022-08-03T13:25:21;33.00;71.70
43089;DHT22;28709;52.030;5.652;2022-08-03T13:27:47;33.00;72.00
43089;DHT22;28709;52.030;5.652;2022-08-03T13:30:14;32.90;72.20
43089;DHT22;28709;52.030;5.652;2022-08-03T13:32:40;32.70;72.40
43089;DHT22;28709;52.030;5.652;2022-08-03T13:35:06;32.50;73.40
43089;DHT22;28709;52.030;5.652;2022-08-03T13:37:33;32.50;73.00
43089;DHT22;28709;52.030;5.652;2022-08-03T13:39:59;32.50;72.90
43089;DHT22;28709;52.030;5.652;2022-08-03T13:42:27;32.50;72.90
43089;DHT22;28709;52.030;5.652;2022-08-03T13:44:53;32.30;73.10
43089;DHT22;28709;52.030;5.652;2022-08-03T13:47:19;32.30;73.40
43089;DHT22;28709;52.030;5.652;2022-08-03T13:49:45;32.30;73.10
43089;DHT22;28709;52.030;5.652;2022-08-03T13:52:10;32.20;73.20
43089;DHT22;28709;52.030;5.652;2022-08-03T13:54:36;32.10;73.40
43089;DHT22;28709;52.030;5.652;2022-08-03T13:57:01;32.20;73.60
43089;DHT22;28709;52.030;5.652;2022-08-03T13:59:27;32.30;73.70
43089;DHT22;28709;52.030;5.652;2022-08-03T14:01:53;32.30;73.50
43089;DHT22;28709;52.030;5.652;2022-08-03T14:04:19;32.50;73.70
43089;DHT22;28709;52.030;5.652;2022-08-03T14:06:45;32.40;73.90
43089;DHT22;28709;52.030;5.652;2022-08-03T14:09:12;32.50;74.00
43089;DHT22;28709;52.030;5.652;2022-08-03T14:11:38;32.50;73.90
43089;DHT22;28709;52.030;5.652;2022-08-03T14:14:04;32.40;74.00
43089;DHT22;28709;52.030;5.652;2022-08-03T14:16:30;32.50;73.70
43089;DHT22;28709;52.030;5.652;2022-08-03T14:18:55;32.40;74.00
43089;DHT22;28709;52.030;5.652;2022-08-03T14:21:21;32.30;74.10
43089;DHT22;28709;52.030;5.652;2022-08-03T14:23:46;32.30;74.90
43089;DHT22;28709;52.030;5.652;2022-08-03T14:26:13;32.40;74.40
43089;DHT22;28709;52.030;5.652;2022-08-03T14:28:39;32.30;74.40
43089;DHT22;28709;52.030;5.652;2022-08-03T14:31:05;32.20;74.70
43089;DHT22;28709;52.030;5.652;2022-08-03T14:33:31;32.20;74.70
43089;DHT22;28709;52.030;5.652;2022-08-03T14:35:57;32.20;74.70
43089;DHT22;28709;52.030;5.652;2022-08-03T14:38:23;32.20;74.70
43089;DHT22;28709;52.030;5.652;2022-08-03T14:40:49;32.20;74.70
43089;DHT22;28709;52.030;5.652;2022-08-03T14:43:15;32.20;74.90
43089;DHT22;28709;52.030;5.652;2022-08-03T14:45:42;32.20;75.10
43089;DHT22;28709;52.030;5.652;2022-08-03T14:48:08;32.20;75.00
43089;DHT22;28709;52.030;5.652;2022-08-03T14:50:34;32.10;75.10
43089;DHT22;28709;52.030;5.652;2022-08-03T14:52:59;32.10;75.00
43089;DHT22;28709;52.030;5.652;2022-08-03T14:55:25;32.10;75.10
43089;DHT22;28709;52.030;5.652;2022-08-03T14:57:50;32.10;75.20
43089;DHT22;28709;52.030;5.652;2022-08-03T15:00:16;32.10;75.30
43089;DHT22;28709;52.030;5.652;2022-08-03T15:02:42;32.00;75.40
43089;DHT22;28709;52.030;5.652;2022-08-03T15:05:08;32.00;75.50
43089;DHT22;28709;52.030;5.652;2022-08-03T15:07:35;32.10;75.50
43089;DHT22;28709;52.030;5.652;2022-08-03T15:10:00;32.10;75.50
43089;DHT22;28709;52.030;5.652;2022-08-03T15:12:26;32.00;75.60
43089;DHT22;28709;52.030;5.652;2022-08-03T15:14:52;32.00;75.80
43089;DHT22;28709;52.030;5.652;2022-08-03T15:17:17;32.00;75.70
43089;DHT22;28709;52.030;5.652;2022-08-03T15:19:43;31.90;75.60
43089;DHT22;28709;52.030;5.652;2022-08-03T15:22:08;31.90;75.60
43089;DHT22;28709;52.030;5.652;2022-08-03T15:24:34;31.90;75.50
43089;DHT22;28709;52.030;5.652;2022-08-03T15:27:00;31.90;75.60
43089;DHT22;28709;52.030;5.652;2022-08-03T15:29:25;31.90;75.60
43089;DHT22;28709;52.030;5.652;2022-08-03T15:31:51;31.90;75.60
43089;DHT22;28709;52.030;5.652;2022-08-03T15:34:16;31.80;75.70
43089;DHT22;28709;52.030;5.652;2022-08-03T15:36:43;31.70;75.60
43089;DHT22;28709;52.030;5.652;2022-08-03T15:39:08;31.70;75.40
43089;DHT22;28709;52.030;5.652;2022-08-03T15:41:34;31.60;75.50
43089;DHT22;28709;52.030;5.652;2022-08-03T15:44:00;31.60;75.60
43089;DHT22;28709;52.030;5.652;2022-08-03T15:46:26;31.60;75.70
43089;DHT22;28709;52.030;5.652;2022-08-03T15:48:52;31.70;75.40
43089;DHT22;28709;52.030;5.652;2022-08-03T15:51:18;31.70;75.60
43089;DHT22;28709;52.030;5.652;2022-08-03T15:53:43;31.70;75.60
43089;DHT22;28709;52.030;5.652;2022-08-03T15:56:09;31.70;75.50
43089;DHT22;28709;52.030;5.652;2022-08-03T15:58:37;31.70;75.60
43089;DHT22;28709;52.030;5.652;2022-08-03T16:01:04;31.60;75.50
43089;DHT22;28709;52.030;5.652;2022-08-03T16:03:30;31.50;75.60
43089;DHT22;28709;52.030;5.652;2022-08-03T16:06:07;31.50;75.60
43089;DHT22;28709;52.030;5.652;2022-08-03T16:08:33;31.50;75.50
43089;DHT22;28709;52.030;5.652;2022-08-03T16:11:00;31.60;75.30
43089;DHT22;28709;52.030;5.652;2022-08-03T16:13:26;31.50;75.30
43089;DHT22;28709;52.030;5.652;2022-08-03T16:15:52;31.50;75.30
43089;DHT22;28709;52.030;5.652;2022-08-03T16:18:18;31.50;75.40
43089;DHT22;28709;52.030;5.652;2022-08-03T16:20:44;31.50;75.30